createdAt,value
2022-12-18T00:00:14.036Z,70.54
2022-12-18T00:06:06.375Z,70.15
2022-12-18T00:11:58.675Z,70.80
2022-12-18T00:17:51.269Z,70.93
2022-12-18T00:23:45.145Z,70.84
2022-12-18T00:29:37.615Z,71.63
2022-12-18T00:35:30.508Z,71.84
2022-12-18T00:41:41.705Z,71.46
2022-12-18T00:47:34.727Z,71.57
2022-12-18T00:53:27.436Z,70.44
2022-12-18T00:59:20.197Z,70.91
2022-12-18T01:05:14.525Z,71.00
2022-12-18T01:11:11.522Z,71.56
2022-12-18T01:17:04.893Z,70.91
2022-12-18T01:22:58.456Z,71.31
2022-12-18T01:28:51.676Z,70.94
2022-12-18T01:34:43.807Z,71.13
2022-12-18T01:40:36.467Z,70.08
2022-12-18T01:46:29.056Z,70.49
2022-12-18T01:52:25.107Z,70.39
2022-12-18T01:58:18.960Z,70.80
2022-12-18T02:04:24.747Z,70.47
2022-12-18T02:10:26.896Z,69.94
2022-12-18T02:16:46.078Z,69.73
2022-12-18T02:23:09.695Z,70.90
2022-12-18T02:29:14.276Z,70.62
2022-12-18T02:35:14.277Z,71.25
2022-12-18T02:41:07.509Z,70.51
2022-12-18T02:47:01.736Z,70.53
2022-12-18T02:53:25.540Z,70.28
2022-12-18T02:59:35.495Z,69.05
2022-12-18T03:05:38.446Z,70.11
2022-12-18T03:11:54.095Z,69.86
2022-12-18T03:18:00.669Z,70.19
2022-12-18T03:23:56.735Z,68.77
2022-12-18T03:30:08.404Z,70.08
2022-12-18T03:36:03.335Z,70.25
2022-12-18T03:42:19.625Z,70.71
2022-12-18T03:48:40.646Z,69.91
2022-12-18T03:54:37.836Z,70.42
2022-12-18T04:00:38.694Z,69.74
2022-12-18T04:06:38.655Z,70.34
2022-12-18T04:12:31.427Z,70.50
2022-12-18T04:18:24.675Z,70.34
2022-12-18T04:24:18.169Z,70.34
2022-12-18T04:30:19.755Z,70.09
2022-12-18T04:36:13.603Z,69.24
2022-12-18T04:42:07.045Z,69.25
2022-12-18T04:48:00.544Z,69.07
2022-12-18T04:53:53.316Z,69.12
2022-12-18T04:59:46.318Z,68.60
2022-12-18T05:05:39.424Z,69.07
2022-12-18T05:11:33.175Z,69.66
2022-12-18T05:17:28.045Z,69.90
2022-12-18T05:23:21.712Z,69.46
2022-12-18T05:29:14.434Z,69.45
2022-12-18T05:35:08.473Z,70.19
2022-12-18T05:41:03.270Z,69.81
2022-12-18T05:46:55.423Z,70.06
2022-12-18T05:52:48.475Z,69.60
2022-12-18T05:58:41.834Z,69.51
2022-12-18T06:04:34.544Z,69.46
2022-12-18T06:10:27.500Z,69.14
2022-12-18T06:16:20.491Z,70.08
2022-12-18T06:22:13.503Z,70.19
2022-12-18T06:28:06.643Z,70.26
2022-12-18T06:33:59.333Z,70.46
2022-12-18T06:39:51.474Z,70.33
2022-12-18T06:45:44.484Z,70.67
2022-12-18T06:51:36.963Z,69.98
2022-12-18T06:57:29.254Z,69.71
2022-12-18T07:03:21.284Z,69.49
2022-12-18T07:09:13.427Z,69.85
2022-12-18T07:15:06.214Z,69.87
2022-12-18T07:20:58.554Z,69.50
2022-12-18T07:26:50.744Z,69.96
2022-12-18T07:32:43.624Z,69.83
2022-12-18T07:38:36.944Z,69.44
2022-12-18T07:44:29.552Z,68.91
2022-12-18T07:50:21.554Z,69.16
2022-12-18T07:56:31.394Z,69.13
2022-12-18T08:02:23.902Z,67.97
2022-12-18T08:08:16.266Z,67.90
2022-12-18T08:14:10.046Z,67.24
2022-12-18T08:20:03.171Z,66.87
2022-12-18T08:25:59.346Z,66.07
2022-12-18T08:31:51.515Z,67.64
2022-12-18T08:37:44.204Z,66.94
2022-12-18T08:43:55.310Z,65.87
2022-12-18T08:49:49.086Z,65.90
2022-12-18T08:55:43.574Z,64.78
2022-12-18T09:01:39.959Z,64.35
2022-12-18T09:07:32.650Z,64.30
2022-12-18T09:13:24.725Z,63.48
2022-12-18T09:19:18.040Z,62.98
2022-12-18T09:25:11.116Z,62.88
2022-12-18T09:31:08.981Z,63.26
2022-12-18T09:37:05.976Z,63.75
2022-12-18T09:43:05.398Z,63.92
2022-12-18T09:49:04.704Z,64.42
2022-12-18T09:55:25.471Z,64.79
2022-12-18T10:01:24.133Z,64.54
2022-12-18T10:07:51.235Z,63.76
2022-12-18T10:13:53.736Z,63.73
2022-12-18T10:19:57.716Z,65.88
2022-12-18T10:25:56.209Z,64.92
2022-12-18T10:31:48.704Z,64.29
2022-12-18T10:38:04.785Z,63.96
2022-12-18T10:44:13.439Z,65.08
2022-12-18T10:50:06.643Z,64.47
2022-12-18T10:56:00.762Z,65.20
2022-12-18T11:02:03.077Z,65.79
2022-12-18T11:07:56.166Z,64.82
2022-12-18T11:14:19.339Z,64.99
2022-12-18T11:20:37.183Z,65.83
2022-12-18T11:26:37.504Z,64.26
2022-12-18T11:32:38.423Z,63.90
2022-12-18T11:38:31.882Z,64.56
2022-12-18T11:44:29.774Z,64.98
2022-12-18T11:50:43.953Z,64.82
2022-12-18T11:56:45.610Z,64.80
2022-12-18T12:02:53.313Z,65.60
2022-12-18T12:09:09.047Z,64.20
2022-12-18T12:15:24.734Z,64.99
2022-12-18T12:21:37.087Z,64.71
2022-12-18T12:27:55.595Z,64.68
2022-12-18T12:34:12.669Z,64.06
2022-12-18T12:40:26.728Z,65.48
2022-12-18T12:46:22.885Z,65.62
2022-12-18T12:52:45.575Z,65.99
2022-12-18T12:59:02.830Z,66.22
2022-12-18T13:05:11.886Z,66.10
2022-12-18T13:11:23.260Z,67.31
2022-12-18T13:17:21.228Z,67.62
2022-12-18T13:23:27.835Z,67.98
2022-12-18T13:29:42.449Z,68.05
2022-12-18T13:35:41.404Z,68.86
2022-12-18T13:41:33.518Z,68.79
2022-12-18T13:47:38.878Z,68.69
2022-12-18T13:53:55.839Z,68.59
2022-12-18T13:59:48.777Z,69.38
2022-12-18T14:05:43.383Z,69.70
2022-12-18T14:11:38.720Z,70.62
2022-12-18T14:17:33.208Z,70.78
2022-12-18T14:23:38.773Z,71.00
2022-12-18T14:29:32.498Z,71.13
2022-12-18T14:35:25.854Z,71.88
2022-12-18T14:41:21.051Z,72.44
2022-12-18T14:47:17.980Z,72.51
2022-12-18T14:53:24.271Z,72.75
2022-12-18T14:59:25.206Z,73.29
2022-12-18T15:05:22.926Z,72.54
2022-12-18T15:11:38.198Z,73.12
2022-12-18T15:17:32.664Z,73.91
2022-12-18T15:23:37.336Z,73.69
2022-12-18T15:29:30.753Z,74.47
2022-12-18T15:35:25.306Z,73.52
2022-12-18T15:41:24.542Z,73.69
2022-12-18T15:47:17.505Z,73.63
2022-12-18T15:53:10.318Z,73.40
2022-12-18T15:59:04.251Z,74.32
2022-12-18T16:04:58.387Z,73.47
2022-12-18T16:10:51.077Z,74.10
2022-12-18T16:16:44.276Z,74.22
2022-12-18T16:22:36.839Z,74.32
2022-12-18T16:28:28.557Z,73.42
2022-12-18T16:34:29.873Z,73.86
2022-12-18T16:40:22.977Z,74.55
2022-12-18T16:46:15.940Z,75.52
2022-12-18T16:52:09.479Z,75.73
2022-12-18T16:58:03.513Z,75.89
2022-12-18T17:03:58.156Z,76.19
2022-12-18T17:09:51.496Z,76.34
2022-12-18T17:15:45.264Z,77.00
2022-12-18T17:21:38.353Z,78.04
2022-12-18T17:27:32.314Z,78.00
2022-12-18T17:33:24.985Z,78.14
2022-12-18T17:39:19.594Z,78.12
2022-12-18T17:45:12.016Z,77.30
2022-12-18T17:51:06.491Z,78.50
2022-12-18T17:56:58.846Z,78.70
2022-12-18T18:02:51.246Z,78.15
2022-12-18T18:08:44.378Z,78.80
2022-12-18T18:14:36.855Z,78.55
2022-12-18T18:20:30.735Z,79.74
2022-12-18T18:26:23.489Z,79.82
2022-12-18T18:32:19.257Z,79.60
2022-12-18T18:38:12.205Z,78.55
2022-12-18T18:44:05.995Z,78.37
2022-12-18T18:49:58.371Z,78.40
2022-12-18T18:56:17.237Z,77.17
2022-12-18T19:02:07.103Z,76.80
2022-12-18T19:08:00.531Z,76.50
2022-12-18T19:13:55.566Z,76.92
2022-12-18T19:19:52.264Z,77.01
2022-12-18T19:25:45.415Z,76.95
2022-12-18T19:31:42.006Z,76.02
2022-12-18T19:37:37.317Z,77.58
2022-12-18T19:43:30.657Z,76.60
2022-12-18T19:49:27.207Z,77.41
2022-12-18T19:55:22.669Z,76.88
2022-12-18T20:01:19.031Z,77.13
2022-12-18T20:07:15.176Z,76.95
2022-12-18T20:13:13.687Z,77.11
2022-12-18T20:19:12.065Z,77.54
2022-12-18T20:25:11.064Z,75.97
2022-12-18T20:31:10.586Z,75.47
2022-12-18T20:37:07.895Z,76.11
2022-12-18T20:43:04.116Z,75.63
2022-12-18T20:48:57.196Z,75.56
2022-12-18T20:54:50.909Z,76.56
2022-12-18T21:00:44.666Z,75.47
2022-12-18T21:06:42.024Z,76.23
2022-12-18T21:12:42.742Z,75.94
2022-12-18T21:18:41.326Z,75.42
2022-12-18T21:24:34.075Z,76.48
2022-12-18T21:30:27.625Z,75.65
2022-12-18T21:36:19.814Z,76.91
2022-12-18T21:42:31.636Z,77.77
2022-12-18T21:48:24.510Z,77.02
2022-12-18T21:54:17.612Z,77.18
2022-12-18T22:00:18.963Z,77.28
2022-12-18T22:06:13.289Z,76.66
2022-12-18T22:12:06.246Z,76.68
2022-12-18T22:18:00.432Z,76.73
2022-12-18T22:23:58.901Z,76.62
2022-12-18T22:30:06.757Z,75.83
2022-12-18T22:35:58.245Z,74.87
2022-12-18T22:41:51.433Z,74.86
2022-12-18T22:47:44.682Z,74.80
2022-12-18T22:53:36.813Z,75.57
2022-12-18T22:59:29.682Z,75.90
2022-12-18T23:05:21.936Z,75.67
2022-12-18T23:11:18.048Z,76.45
2022-12-18T23:17:10.357Z,76.07
2022-12-18T23:23:02.726Z,75.73
2022-12-18T23:28:56.987Z,75.60
2022-12-18T23:34:49.778Z,75.17
2022-12-18T23:40:41.937Z,74.70
2022-12-18T23:46:37.844Z,74.43
2022-12-18T23:52:29.989Z,75.36
2022-12-18T23:58:23.668Z,74.17
